createdAt,value
2023-03-08T00:00:27.693Z,22.94
2023-03-08T00:02:56.668Z,23.90
2023-03-08T00:05:23.598Z,25.54
2023-03-08T00:07:53.099Z,23.25
2023-03-08T00:10:20.549Z,24.01
2023-03-08T00:12:47.317Z,24.78
2023-03-08T00:15:14.265Z,23.70
2023-03-08T00:17:41.115Z,23.93
2023-03-08T00:20:13.067Z,22.44
2023-03-08T00:22:41.855Z,23.43
2023-03-08T00:25:10.233Z,23.27
2023-03-08T00:27:38.150Z,23.75
2023-03-08T00:30:06.306Z,23.88
2023-03-08T00:32:33.356Z,24.05
2023-03-08T00:35:00.402Z,22.69
2023-03-08T00:37:27.111Z,24.05
2023-03-08T00:39:54.972Z,24.61
2023-03-08T00:42:22.957Z,22.70
2023-03-08T00:44:50.199Z,24.93
2023-03-08T00:47:17.012Z,23.20
2023-03-08T00:49:44.735Z,24.34
2023-03-08T00:52:11.757Z,21.23
2023-03-08T00:54:38.838Z,23.44
2023-03-08T00:57:06.025Z,22.10
2023-03-08T00:59:32.904Z,22.63
2023-03-08T01:02:00.866Z,22.03
2023-03-08T01:04:27.649Z,21.80
2023-03-08T01:06:55.241Z,22.06
2023-03-08T01:09:21.991Z,22.81
2023-03-08T01:11:48.698Z,23.58
2023-03-08T01:14:15.448Z,23.25
2023-03-08T01:16:42.728Z,21.86
2023-03-08T01:19:11.326Z,23.44
2023-03-08T01:21:38.243Z,22.13
2023-03-08T01:24:05.710Z,24.74
2023-03-08T01:26:32.484Z,23.43
2023-03-08T01:28:59.545Z,23.81
2023-03-08T01:31:30.095Z,22.91
2023-03-08T01:33:58.579Z,22.18
2023-03-08T01:36:28.121Z,22.80
2023-03-08T01:38:55.957Z,23.70
2023-03-08T01:41:26.522Z,21.43
2023-03-08T01:43:54.963Z,23.60
2023-03-08T01:46:29.995Z,24.15
2023-03-08T01:49:13.306Z,23.08
2023-03-08T01:51:47.372Z,24.38
2023-03-08T01:54:35.085Z,23.73
2023-03-08T01:57:20.138Z,23.21
2023-03-08T01:59:49.095Z,23.98
2023-03-08T02:02:20.050Z,23.99
2023-03-08T02:04:46.826Z,22.85
2023-03-08T02:07:14.251Z,23.21
2023-03-08T02:09:42.586Z,22.92
2023-03-08T02:12:13.101Z,24.00
2023-03-08T02:14:42.916Z,22.78
2023-03-08T02:17:12.020Z,23.49
2023-03-08T02:20:00.099Z,23.43
2023-03-08T02:22:27.550Z,23.43
2023-03-08T02:24:54.273Z,23.78
2023-03-08T02:27:24.904Z,23.28
2023-03-08T02:29:52.258Z,21.11
2023-03-08T02:32:19.184Z,22.67
2023-03-08T02:34:45.988Z,22.52
2023-03-08T02:37:12.774Z,22.04
2023-03-08T02:39:39.773Z,21.86
2023-03-08T02:42:06.906Z,21.27
2023-03-08T02:44:35.213Z,24.03
2023-03-08T02:47:01.948Z,23.36
2023-03-08T02:49:28.682Z,23.08
2023-03-08T02:51:57.614Z,23.54
2023-03-08T02:54:24.345Z,21.36
2023-03-08T02:56:51.329Z,21.57
2023-03-08T02:59:18.156Z,21.65
2023-03-08T03:01:45.368Z,25.08
2023-03-08T03:04:12.520Z,21.79
2023-03-08T03:06:39.352Z,21.20
2023-03-08T03:09:11.413Z,22.32
2023-03-08T03:11:40.434Z,23.19
2023-03-08T03:14:07.366Z,23.52
2023-03-08T03:16:41.726Z,22.94
2023-03-08T03:19:10.646Z,21.51
2023-03-08T03:21:39.410Z,19.80
2023-03-08T03:24:06.947Z,21.83
2023-03-08T03:26:54.302Z,22.96
2023-03-08T03:29:23.120Z,22.81
2023-03-08T03:31:55.513Z,20.67
2023-03-08T03:34:22.951Z,21.32
2023-03-08T03:36:50.392Z,20.71
2023-03-08T03:39:17.333Z,19.42
2023-03-08T03:41:44.785Z,22.66
2023-03-08T03:44:14.069Z,22.30
2023-03-08T03:46:43.616Z,22.08
2023-03-08T03:49:12.230Z,22.71
2023-03-08T03:51:42.076Z,24.47
2023-03-08T03:54:21.030Z,22.16
2023-03-08T03:56:48.813Z,25.66
2023-03-08T03:59:17.174Z,23.71
2023-03-08T04:01:44.568Z,23.64
2023-03-08T04:04:21.674Z,22.72
2023-03-08T04:06:49.249Z,22.82
2023-03-08T04:09:19.938Z,22.50
2023-03-08T04:11:54.217Z,23.37
2023-03-08T04:14:22.493Z,21.45
2023-03-08T04:16:51.169Z,23.88
2023-03-08T04:19:26.235Z,22.81
2023-03-08T04:21:56.160Z,21.50
2023-03-08T04:24:26.345Z,21.52
2023-03-08T04:26:57.398Z,22.28
2023-03-08T04:29:24.271Z,22.80
2023-03-08T04:31:51.287Z,23.63
2023-03-08T04:34:19.881Z,22.02
2023-03-08T04:36:49.456Z,23.16
2023-03-08T04:39:16.300Z,22.34
2023-03-08T04:41:43.444Z,22.64
2023-03-08T04:44:30.446Z,20.92
2023-03-08T04:46:57.522Z,21.95
2023-03-08T04:49:31.616Z,22.29
2023-03-08T04:52:02.001Z,22.77
2023-03-08T04:54:29.948Z,24.29
2023-03-08T04:57:02.366Z,22.04
2023-03-08T04:59:30.455Z,21.62
2023-03-08T05:02:00.332Z,21.84
2023-03-08T05:04:29.091Z,22.91
2023-03-08T05:06:55.793Z,21.97
2023-03-08T05:09:25.566Z,21.00
2023-03-08T05:11:53.387Z,20.42
2023-03-08T05:14:21.842Z,20.96
2023-03-08T05:16:49.565Z,20.50
2023-03-08T05:19:16.663Z,19.54
2023-03-08T05:21:48.587Z,23.77
2023-03-08T05:24:15.425Z,22.63
2023-03-08T05:26:43.031Z,22.19
2023-03-08T05:29:11.677Z,21.47
2023-03-08T05:31:40.104Z,21.23
2023-03-08T05:34:11.370Z,21.11
2023-03-08T05:36:42.921Z,22.28
2023-03-08T05:39:10.949Z,21.50
2023-03-08T05:41:44.325Z,20.62
2023-03-08T05:44:13.324Z,21.70
2023-03-08T05:46:41.096Z,23.35
2023-03-08T05:49:10.470Z,23.70
2023-03-08T05:51:38.254Z,21.49
2023-03-08T05:54:05.813Z,21.41
2023-03-08T05:56:34.254Z,21.21
2023-03-08T05:59:28.346Z,24.80
2023-03-08T06:01:59.740Z,21.88
2023-03-08T06:04:37.540Z,23.39
2023-03-08T06:07:04.571Z,22.83
2023-03-08T06:09:38.543Z,24.71
2023-03-08T06:12:07.423Z,22.93
2023-03-08T06:14:34.404Z,24.44
2023-03-08T06:17:01.872Z,24.62
2023-03-08T06:19:31.721Z,24.11
2023-03-08T06:21:58.616Z,25.96
2023-03-08T06:24:26.726Z,23.94
2023-03-08T06:26:55.668Z,24.79
2023-03-08T06:29:23.384Z,23.27
2023-03-08T06:31:50.470Z,24.19
2023-03-08T06:34:17.977Z,23.55
2023-03-08T06:36:45.916Z,22.45
2023-03-08T06:39:13.900Z,22.56
2023-03-08T06:41:40.987Z,23.21
2023-03-08T06:44:08.049Z,20.36
2023-03-08T06:46:34.766Z,21.63
2023-03-08T06:49:01.779Z,20.66
2023-03-08T06:51:30.075Z,23.11
2023-03-08T06:53:57.080Z,21.02
2023-03-08T06:56:28.833Z,20.88
2023-03-08T06:58:55.917Z,24.39
2023-03-08T07:01:22.805Z,23.13
2023-03-08T07:03:50.266Z,19.26
2023-03-08T07:06:17.372Z,20.03
2023-03-08T07:08:44.092Z,25.58
2023-03-08T07:11:11.065Z,24.35
2023-03-08T07:13:38.798Z,21.01
2023-03-08T07:16:10.175Z,19.48
2023-03-08T07:18:36.965Z,20.10
2023-03-08T07:21:04.131Z,20.51
2023-03-08T07:23:31.033Z,20.45
2023-03-08T07:25:58.196Z,20.59
2023-03-08T07:28:25.780Z,18.46
2023-03-08T07:30:53.281Z,18.85
2023-03-08T07:33:21.380Z,23.24
2023-03-08T07:35:48.640Z,24.58
2023-03-08T07:38:16.662Z,23.15
2023-03-08T07:40:44.436Z,24.54
2023-03-08T07:43:11.782Z,20.36
2023-03-08T07:45:53.048Z,23.97
2023-03-08T07:48:20.024Z,20.24
2023-03-08T07:50:46.758Z,22.79
2023-03-08T07:53:14.587Z,20.59
2023-03-08T07:55:41.339Z,22.43
2023-03-08T07:58:08.426Z,22.36
2023-03-08T08:00:35.154Z,20.39
2023-03-08T08:03:02.019Z,21.00
2023-03-08T08:05:29.744Z,20.44
2023-03-08T08:07:56.475Z,21.14
2023-03-08T08:10:23.559Z,21.78
2023-03-08T08:12:50.314Z,23.09
2023-03-08T08:15:17.460Z,21.89
2023-03-08T08:17:44.805Z,20.24
2023-03-08T08:20:12.038Z,19.84
2023-03-08T08:22:38.989Z,19.65
2023-03-08T08:25:06.958Z,20.27
2023-03-08T08:27:34.039Z,22.61
2023-03-08T08:30:01.555Z,21.63
2023-03-08T08:32:28.938Z,18.46
2023-03-08T08:34:56.267Z,19.55
2023-03-08T08:37:23.083Z,21.05
2023-03-08T08:39:49.832Z,20.46
2023-03-08T08:42:16.797Z,18.94
2023-03-08T08:44:45.088Z,23.05
2023-03-08T08:47:11.889Z,21.24
2023-03-08T08:49:39.363Z,22.63
2023-03-08T08:52:06.257Z,22.68
2023-03-08T08:54:34.273Z,23.87
2023-03-08T08:57:01.447Z,21.83
2023-03-08T08:59:28.738Z,20.50
2023-03-08T09:01:55.556Z,19.51
2023-03-08T09:04:22.948Z,20.61
2023-03-08T09:06:50.116Z,22.14
2023-03-08T09:09:18.346Z,21.91
2023-03-08T09:11:54.999Z,23.29
2023-03-08T09:14:22.544Z,21.51
2023-03-08T09:16:49.572Z,20.79
2023-03-08T09:19:17.044Z,19.96
2023-03-08T09:21:44.014Z,21.71
2023-03-08T09:24:11.517Z,22.49
2023-03-08T09:26:38.364Z,23.97
2023-03-08T09:29:07.277Z,22.41
2023-03-08T09:31:36.420Z,22.86
2023-03-08T09:34:05.324Z,21.18
2023-03-08T09:36:32.069Z,22.83
2023-03-08T09:38:59.446Z,23.09
2023-03-08T09:42:00.210Z,19.59
2023-03-08T09:44:30.916Z,21.06
2023-03-08T09:47:06.076Z,23.13
2023-03-08T09:49:34.413Z,21.08
2023-03-08T09:52:30.716Z,21.92
2023-03-08T09:55:00.829Z,19.93
2023-03-08T09:57:34.637Z,21.28
2023-03-08T10:00:11.987Z,23.77
2023-03-08T10:03:07.465Z,21.56
2023-03-08T10:05:40.970Z,22.28
2023-03-08T10:08:17.629Z,21.48
2023-03-08T10:10:56.487Z,22.21
2023-03-08T10:13:28.989Z,21.74
2023-03-08T10:16:32.436Z,21.24
2023-03-08T10:19:17.797Z,21.20
2023-03-08T10:21:47.464Z,20.63
2023-03-08T10:24:34.717Z,21.70
2023-03-08T10:27:16.130Z,21.67
2023-03-08T10:29:51.880Z,18.80
2023-03-08T10:32:18.745Z,19.44
2023-03-08T10:34:46.169Z,20.93
2023-03-08T10:37:13.115Z,21.84
2023-03-08T10:39:53.446Z,19.61
2023-03-08T10:42:27.362Z,20.74
2023-03-08T10:45:00.047Z,22.71
2023-03-08T10:47:32.559Z,20.93
2023-03-08T10:50:21.027Z,20.98
2023-03-08T10:52:50.855Z,20.53
2023-03-08T10:55:21.467Z,19.85
2023-03-08T10:57:50.974Z,18.07
2023-03-08T11:00:21.025Z,20.05
2023-03-08T11:02:48.465Z,20.54
2023-03-08T11:05:18.637Z,18.99
2023-03-08T11:07:57.701Z,21.12
2023-03-08T11:10:30.305Z,18.85
2023-03-08T11:13:21.285Z,19.00
2023-03-08T11:15:56.479Z,22.10
2023-03-08T11:18:44.187Z,19.73
2023-03-08T11:21:23.467Z,20.42
2023-03-08T11:24:14.379Z,19.56
2023-03-08T11:27:05.897Z,19.18
2023-03-08T11:29:52.534Z,19.23
2023-03-08T11:32:37.682Z,20.60
2023-03-08T11:35:41.039Z,20.66
2023-03-08T11:38:26.998Z,22.06
2023-03-08T11:41:21.255Z,18.55
2023-03-08T11:43:54.076Z,19.15
2023-03-08T11:46:47.948Z,23.19
2023-03-08T11:49:18.290Z,20.11
2023-03-08T11:52:09.269Z,19.80
2023-03-08T11:55:20.538Z,21.32
2023-03-08T11:57:54.447Z,21.30
2023-03-08T12:00:53.497Z,19.99
2023-03-08T12:03:24.345Z,23.21
2023-03-08T12:05:59.080Z,21.76
2023-03-08T12:08:43.743Z,21.63
2023-03-08T12:11:27.273Z,22.92
2023-03-08T12:14:03.809Z,23.58
2023-03-08T12:16:48.826Z,25.17
2023-03-08T12:19:41.157Z,22.78
2023-03-08T12:22:39.186Z,25.00
2023-03-08T12:25:26.731Z,26.24
2023-03-08T12:28:11.616Z,24.43
2023-03-08T12:31:26.644Z,24.44
2023-03-08T12:33:55.027Z,27.33
2023-03-08T12:36:22.727Z,25.76
2023-03-08T12:38:56.719Z,24.35
2023-03-08T12:41:33.734Z,22.36
2023-03-08T12:44:05.523Z,22.63
2023-03-08T12:47:02.792Z,23.80
2023-03-08T12:49:36.713Z,24.36
2023-03-08T12:52:26.576Z,22.27
2023-03-08T12:55:19.073Z,25.72
2023-03-08T12:57:55.641Z,25.04
2023-03-08T13:00:35.609Z,24.15
2023-03-08T13:03:14.624Z,23.27
2023-03-08T13:05:45.662Z,22.39
2023-03-08T13:08:12.925Z,23.46
2023-03-08T13:10:49.204Z,21.41
2023-03-08T13:13:51.343Z,24.18
2023-03-08T13:16:30.712Z,21.06
2023-03-08T13:19:21.681Z,23.71
2023-03-08T13:22:03.240Z,23.13
2023-03-08T13:24:46.859Z,21.93
2023-03-08T13:27:48.244Z,22.58
2023-03-08T13:30:24.530Z,22.61
2023-03-08T13:32:52.382Z,22.88
2023-03-08T13:35:20.210Z,21.13
2023-03-08T13:37:59.895Z,21.81
2023-03-08T13:40:28.653Z,21.21
2023-03-08T13:43:08.507Z,20.19
2023-03-08T13:45:35.692Z,18.10
2023-03-08T13:48:08.826Z,18.48
2023-03-08T13:50:38.884Z,20.86
2023-03-08T13:53:10.940Z,21.43
2023-03-08T13:55:45.353Z,22.22
2023-03-08T13:58:19.441Z,22.32
2023-03-08T14:00:46.394Z,21.15
2023-03-08T14:03:20.652Z,21.42
2023-03-08T14:05:48.537Z,19.45
2023-03-08T14:08:23.292Z,19.80
2023-03-08T14:11:01.218Z,20.08
2023-03-08T14:13:30.158Z,22.55
2023-03-08T14:16:00.256Z,21.57
2023-03-08T14:18:33.776Z,21.32
2023-03-08T14:21:02.378Z,22.42
2023-03-08T14:23:29.484Z,21.59
2023-03-08T14:25:59.496Z,22.31
2023-03-08T14:29:03.781Z,24.84
2023-03-08T14:31:31.140Z,20.90
2023-03-08T14:34:01.613Z,20.31
2023-03-08T14:36:31.543Z,23.59
2023-03-08T14:39:02.709Z,22.78
2023-03-08T14:41:32.721Z,23.41
2023-03-08T14:44:00.530Z,22.22
2023-03-08T14:46:28.769Z,22.47
2023-03-08T14:49:01.819Z,21.97
2023-03-08T14:51:37.903Z,23.60
2023-03-08T14:54:20.504Z,21.11
2023-03-08T14:56:49.039Z,23.34
2023-03-08T14:59:26.875Z,21.65
2023-03-08T15:01:55.142Z,21.94
2023-03-08T15:04:24.812Z,22.34
2023-03-08T15:06:53.965Z,23.46
2023-03-08T15:09:22.231Z,21.39
2023-03-08T15:11:52.479Z,20.81
2023-03-08T15:14:19.293Z,23.42
2023-03-08T15:16:46.295Z,22.09
2023-03-08T15:19:14.213Z,22.41
2023-03-08T15:21:41.414Z,21.81
2023-03-08T15:24:15.058Z,22.89
2023-03-08T15:26:41.949Z,24.58
2023-03-08T15:29:23.793Z,22.84
2023-03-08T15:31:51.296Z,23.79
2023-03-08T15:34:18.393Z,21.27
2023-03-08T15:36:47.275Z,21.84
2023-03-08T15:39:15.288Z,20.71
2023-03-08T15:41:42.053Z,22.40
2023-03-08T15:44:09.664Z,20.86
2023-03-08T15:46:36.520Z,22.37
2023-03-08T15:49:05.126Z,21.31
2023-03-08T15:51:35.789Z,23.89
2023-03-08T15:54:05.670Z,23.14
2023-03-08T15:56:32.575Z,21.37
2023-03-08T15:58:59.890Z,21.16
2023-03-08T16:01:27.316Z,21.29
2023-03-08T16:03:56.458Z,22.58
2023-03-08T16:06:24.230Z,20.57
2023-03-08T16:08:51.378Z,21.25
2023-03-08T16:11:22.511Z,20.28
2023-03-08T16:13:52.198Z,19.44
2023-03-08T16:16:21.206Z,22.69
2023-03-08T16:18:49.077Z,22.26
2023-03-08T16:21:17.057Z,21.30
2023-03-08T16:23:44.032Z,23.71
2023-03-08T16:26:17.399Z,21.81
2023-03-08T16:28:46.842Z,21.10
2023-03-08T16:31:15.110Z,20.96
2023-03-08T16:33:42.224Z,21.80
2023-03-08T16:36:09.281Z,19.31
2023-03-08T16:38:37.077Z,23.15
2023-03-08T16:41:14.112Z,22.74
2023-03-08T16:43:49.784Z,21.14
2023-03-08T16:46:21.862Z,19.70
2023-03-08T16:48:51.367Z,21.05
2023-03-08T16:51:20.717Z,24.55
2023-03-08T16:53:49.101Z,23.61
2023-03-08T16:56:20.800Z,21.32
2023-03-08T16:58:48.143Z,22.67
2023-03-08T17:01:17.045Z,22.34
2023-03-08T17:03:44.658Z,21.72
2023-03-08T17:06:15.850Z,21.54
2023-03-08T17:08:43.138Z,22.68
2023-03-08T17:11:25.046Z,21.24
2023-03-08T17:13:55.700Z,24.72
2023-03-08T17:16:26.964Z,24.46
2023-03-08T17:18:54.639Z,23.10
2023-03-08T17:21:23.745Z,22.86
2023-03-08T17:23:52.141Z,23.14
2023-03-08T17:26:22.394Z,22.10
2023-03-08T17:28:50.817Z,24.99
2023-03-08T17:31:21.369Z,23.41
2023-03-08T17:33:49.070Z,22.59
2023-03-08T17:36:16.743Z,23.39
2023-03-08T17:38:43.706Z,22.86
2023-03-08T17:41:15.191Z,24.02
2023-03-08T17:43:42.201Z,24.42
2023-03-08T17:46:16.725Z,23.56
2023-03-08T17:48:44.275Z,24.71
2023-03-08T17:51:14.232Z,25.01
2023-03-08T17:53:42.236Z,24.96
2023-03-08T17:56:11.489Z,25.36
2023-03-08T17:58:38.326Z,24.54
2023-03-08T18:01:31.864Z,22.96
2023-03-08T18:03:59.119Z,23.09
2023-03-08T18:06:34.923Z,23.17
2023-03-08T18:09:06.323Z,22.49
2023-03-08T18:11:37.960Z,23.20
2023-03-08T18:14:06.773Z,24.02
2023-03-08T18:16:34.713Z,23.56
2023-03-08T18:19:02.554Z,24.19
2023-03-08T18:21:32.943Z,23.26
2023-03-08T18:24:00.421Z,25.39
2023-03-08T18:26:28.002Z,25.77
2023-03-08T18:28:54.875Z,22.48
2023-03-08T18:31:26.108Z,24.12
2023-03-08T18:33:55.006Z,23.27
2023-03-08T18:36:23.414Z,23.19
2023-03-08T18:38:51.734Z,26.59
2023-03-08T18:41:23.245Z,25.41
2023-03-08T18:43:51.928Z,25.19
2023-03-08T18:46:18.975Z,23.63
2023-03-08T18:48:52.683Z,24.83
2023-03-08T18:51:19.635Z,25.38
2023-03-08T18:53:47.117Z,25.78
2023-03-08T18:56:13.880Z,23.65
2023-03-08T18:58:40.792Z,24.60
2023-03-08T19:01:13.174Z,27.28
2023-03-08T19:03:41.193Z,26.90
2023-03-08T19:06:09.785Z,24.16
2023-03-08T19:08:38.850Z,25.09
2023-03-08T19:11:13.428Z,26.54
2023-03-08T19:13:40.882Z,26.18
2023-03-08T19:16:29.496Z,29.97
2023-03-08T19:18:59.217Z,28.56
2023-03-08T19:21:32.376Z,30.49
2023-03-08T19:23:59.856Z,30.17
2023-03-08T19:26:39.776Z,31.29
2023-03-08T19:29:11.419Z,28.46
2023-03-08T19:31:43.443Z,28.41
2023-03-08T19:34:11.564Z,29.22
2023-03-08T19:36:39.660Z,30.73
2023-03-08T19:39:12.254Z,30.15
2023-03-08T19:41:39.200Z,29.68
2023-03-08T19:44:08.524Z,26.78
2023-03-08T19:46:39.301Z,29.84
2023-03-08T19:49:08.699Z,26.87
2023-03-08T19:51:36.237Z,26.32
2023-03-08T19:54:03.368Z,26.96
2023-03-08T19:56:30.148Z,30.92
2023-03-08T19:58:57.201Z,27.90
2023-03-08T20:01:24.184Z,26.92
2023-03-08T20:03:51.632Z,28.88
2023-03-08T20:06:31.369Z,30.32
2023-03-08T20:09:00.703Z,28.61
2023-03-08T20:11:27.745Z,30.66
2023-03-08T20:13:54.615Z,29.57
2023-03-08T20:16:22.872Z,30.42
2023-03-08T20:18:49.884Z,30.82
2023-03-08T20:21:18.305Z,28.35
2023-03-08T20:23:46.841Z,33.43
2023-03-08T20:26:14.111Z,31.17
2023-03-08T20:28:40.907Z,30.44
2023-03-08T20:31:16.758Z,30.57
2023-03-08T20:33:44.583Z,29.59
2023-03-08T20:36:11.558Z,30.95
2023-03-08T20:38:39.197Z,32.01
2023-03-08T20:41:09.816Z,32.19
2023-03-08T20:43:36.854Z,34.07
2023-03-08T20:46:09.990Z,32.92
2023-03-08T20:48:39.068Z,31.71
2023-03-08T20:51:07.965Z,31.47
2023-03-08T20:53:35.634Z,31.29
2023-03-08T20:56:14.194Z,29.35
2023-03-08T20:58:41.885Z,29.02
2023-03-08T21:01:20.078Z,32.55
2023-03-08T21:03:47.253Z,30.48
2023-03-08T21:06:17.209Z,29.06
2023-03-08T21:08:43.909Z,28.84
2023-03-08T21:11:10.680Z,27.21
2023-03-08T21:13:38.278Z,29.09
2023-03-08T21:16:08.295Z,29.25
2023-03-08T21:18:35.135Z,27.96
2023-03-08T21:21:01.902Z,28.11
2023-03-08T21:23:28.758Z,27.11
2023-03-08T21:25:59.988Z,25.87
2023-03-08T21:28:27.252Z,24.95
2023-03-08T21:30:57.046Z,26.99
2023-03-08T21:33:24.661Z,26.47
2023-03-08T21:35:52.663Z,27.89
2023-03-08T21:38:20.222Z,25.38
2023-03-08T21:40:46.943Z,29.57
2023-03-08T21:43:14.041Z,28.58
2023-03-08T21:45:42.095Z,28.12
2023-03-08T21:48:10.256Z,30.56
2023-03-08T21:50:41.045Z,28.04
2023-03-08T21:53:08.749Z,29.22
2023-03-08T21:55:39.736Z,28.70
2023-03-08T21:58:08.720Z,28.17
2023-03-08T22:00:35.600Z,27.51
2023-03-08T22:03:02.495Z,26.89
2023-03-08T22:05:30.485Z,25.82
2023-03-08T22:07:57.480Z,24.04
2023-03-08T22:10:24.627Z,27.02
2023-03-08T22:12:51.404Z,28.95
2023-03-08T22:15:18.619Z,28.90
2023-03-08T22:17:45.366Z,25.58
2023-03-08T22:20:12.780Z,26.79
2023-03-08T22:22:40.565Z,25.37
2023-03-08T22:25:09.098Z,29.24
2023-03-08T22:27:35.956Z,28.58
2023-03-08T22:30:04.104Z,25.10
2023-03-08T22:32:30.985Z,28.63
2023-03-08T22:34:57.835Z,29.20
2023-03-08T22:37:25.122Z,29.74
2023-03-08T22:39:52.301Z,27.58
2023-03-08T22:42:19.499Z,28.57
2023-03-08T22:44:46.271Z,30.05
2023-03-08T22:47:13.054Z,27.46
2023-03-08T22:49:40.321Z,28.35
2023-03-08T22:52:08.397Z,28.38
2023-03-08T22:54:36.528Z,30.79
2023-03-08T22:57:03.789Z,27.48
2023-03-08T22:59:30.542Z,28.19
2023-03-08T23:01:57.381Z,27.65
2023-03-08T23:04:24.560Z,26.15
2023-03-08T23:06:51.298Z,25.61
2023-03-08T23:09:18.641Z,28.01
2023-03-08T23:11:45.809Z,26.53
2023-03-08T23:14:13.025Z,26.36
2023-03-08T23:16:42.232Z,27.35
2023-03-08T23:19:12.621Z,27.58
2023-03-08T23:21:39.728Z,26.77
2023-03-08T23:24:07.444Z,27.44
2023-03-08T23:26:34.902Z,25.43
2023-03-08T23:29:03.602Z,27.71
2023-03-08T23:31:33.572Z,25.24
2023-03-08T23:34:01.386Z,27.75
2023-03-08T23:36:31.106Z,27.00
2023-03-08T23:38:58.026Z,24.81
2023-03-08T23:41:25.809Z,26.30
2023-03-08T23:43:57.901Z,26.32
2023-03-08T23:46:26.310Z,25.80
2023-03-08T23:48:55.714Z,27.75
2023-03-08T23:51:23.931Z,25.59
2023-03-08T23:53:52.723Z,27.49
2023-03-08T23:56:30.069Z,31.64
2023-03-08T23:58:59.396Z,28.05
